Time;durP1;ratioP1;P1;durP2;ratioP2;P2;SDS_P1;SDS_P2;PMS_P1;PMS_P2;Temp;Humidity;BMP_temperature;BMP_pressure;BME280_temperature;BME280_humidity;BME280_pressure;Samples;Min_cycle;Max_cycle;Signal;HPM_P1;HPM_P2
2022/07/14 00:01:13;;;;;;;4.27;1.30;;;20.10;94.50;;;;;;5071426;28;20662;-78
2022/07/14 00:03:41;;;;;;;2.13;1.43;;;20.00;95.50;;;;;;5065487;28;20227;-78
2022/07/14 00:06:11;;;;;;;1.53;1.17;;;20.00;95.30;;;;;;5064106;28;20192;-76
2022/07/14 00:08:39;;;;;;;2.43;1.40;;;20.00;95.40;;;;;;5072014;28;20289;-77
2022/07/14 00:11:07;;;;;;;3.20;1.40;;;20.00;95.60;;;;;;5069288;28;20636;-77
2022/07/14 00:13:37;;;;;;;1.47;1.20;;;19.90;95.90;;;;;;5068523;28;20232;-78
2022/07/14 00:16:05;;;;;;;2.43;1.40;;;19.90;96.20;;;;;;5050964;28;20243;-78
2022/07/14 00:18:34;;;;;;;3.60;1.23;;;19.80;96.70;;;;;;5051307;28;20295;-75
2022/07/14 00:21:02;;;;;;;1.53;1.33;;;19.80;96.10;;;;;;5050753;28;20334;-78
2022/07/14 00:23:32;;;;;;;2.67;1.37;;;19.80;96.20;;;;;;5051551;28;20664;-78
2022/07/14 00:26:00;;;;;;;2.47;1.37;;;19.70;96.90;;;;;;5051327;28;20862;-79
2022/07/14 00:28:28;;;;;;;1.77;1.17;;;19.70;97.60;;;;;;5055819;28;20324;-77
2022/07/14 00:30:58;;;;;;;1.77;1.43;;;19.60;97.70;;;;;;5068909;28;20711;-75
2022/07/14 00:33:26;;;;;;;1.50;1.40;;;19.50;98.30;;;;;;5069740;28;20261;-77
2022/07/14 00:35:54;;;;;;;3.03;1.50;;;19.50;98.40;;;;;;5064495;28;20196;-75
2022/07/14 00:38:23;;;;;;;2.00;1.50;;;19.50;98.50;;;;;;5067971;28;20269;-76
2022/07/14 00:40:53;;;;;;;2.60;1.30;;;19.50;98.60;;;;;;5072667;28;20238;-74
2022/07/14 00:43:21;;;;;;;2.30;1.40;;;19.40;99.20;;;;;;5073417;28;20616;-75
2022/07/14 00:45:50;;;;;;;1.67;1.30;;;19.40;99.90;;;;;;5074350;28;20200;-75
2022/07/14 00:48:19;;;;;;;1.60;1.50;;;19.30;99.90;;;;;;5074395;28;20192;-75
2022/07/14 00:50:49;;;;;;;2.17;1.40;;;19.20;99.90;;;;;;5054872;28;20291;-75
2022/07/14 00:53:18;;;;;;;1.53;1.40;;;19.20;99.90;;;;;;5054994;28;20230;-77
2022/07/14 00:55:46;;;;;;;5.10;1.50;;;19.10;99.90;;;;;;5060083;28;20315;-77
2022/07/14 00:58:16;;;;;;;3.00;1.60;;;19.10;99.90;;;;;;5074879;28;20629;-78
2022/07/14 01:00:44;;;;;;;1.53;1.37;;;19.10;99.90;;;;;;5054641;28;20631;-77
2022/07/14 01:03:13;;;;;;;2.57;1.60;;;19.00;99.90;;;;;;5057615;28;20200;-77
2022/07/14 01:05:41;;;;;;;3.97;1.33;;;19.00;99.90;;;;;;5055040;28;20236;-78
2022/07/14 01:08:10;;;;;;;3.50;1.30;;;19.00;99.90;;;;;;5054471;28;20211;-78
2022/07/14 01:10:38;;;;;;;2.20;1.47;;;19.00;99.90;;;;;;5069823;28;20210;-76
2022/07/14 01:13:07;;;;;;;1.50;1.40;;;18.90;99.90;;;;;;5065239;28;20290;-75
2022/07/14 01:15:37;;;;;;;3.63;1.40;;;18.90;99.90;;;;;;5062241;28;20228;-75
2022/07/14 01:18:05;;;;;;;1.40;1.30;;;18.90;99.90;;;;;;5054715;28;20243;-78
2022/07/14 01:20:34;;;;;;;2.93;1.50;;;18.80;99.90;;;;;;5065882;28;20639;-77
2022/07/14 01:23:03;;;;;;;1.43;1.30;;;18.80;99.90;;;;;;5054574;28;20243;-76
2022/07/14 01:25:32;;;;;;;2.73;1.40;;;18.80;99.90;;;;;;5054271;28;20189;-75
2022/07/14 01:28:01;;;;;;;1.43;1.33;;;18.80;99.90;;;;;;5059131;28;20311;-75
2022/07/14 01:30:29;;;;;;;2.53;1.40;;;18.80;99.90;;;;;;5073716;28;20235;-75
2022/07/14 01:32:58;;;;;;;2.33;1.40;;;18.70;99.90;;;;;;5074904;28;20674;-77
2022/07/14 01:35:26;;;;;;;1.50;1.40;;;18.70;99.90;;;;;;5079416;28;20218;-77
2022/07/14 01:37:55;;;;;;;2.10;1.50;;;18.60;99.90;;;;;;5076135;28;20310;-78
2022/07/14 01:40:25;;;;;;;3.00;1.60;;;18.60;99.90;;;;;;5070793;28;20308;-78
2022/07/14 01:42:53;;;;;;;4.57;1.57;;;18.70;99.90;;;;;;5059218;28;20208;-78
2022/07/14 01:45:21;;;;;;;2.10;1.20;;;18.80;99.90;;;;;;5052942;28;20188;-77
2022/07/14 01:47:49;;;;;;;1.50;1.40;;;18.80;99.90;;;;;;5063386;28;20235;-79
2022/07/14 01:50:18;;;;;;;2.10;1.50;;;18.80;99.90;;;;;;5064884;28;20232;-77
2022/07/14 01:52:46;;;;;;;2.33;1.50;;;18.90;99.90;;;;;;5073773;28;20335;-78
2022/07/14 01:55:14;;;;;;;2.20;1.27;;;18.90;99.90;;;;;;5073555;28;20231;-78
2022/07/14 01:57:44;;;;;;;2.03;1.40;;;19.00;99.90;;;;;;5054374;28;20279;-79
2022/07/14 02:00:13;;;;;;;1.90;1.40;;;19.10;99.90;;;;;;5053472;28;20283;-78
2022/07/14 02:02:41;;;;;;;2.33;1.40;;;19.10;99.90;;;;;;5053864;28;20216;-80
2022/07/14 02:05:10;;;;;;;2.73;1.20;;;19.10;99.90;;;;;;5053579;28;20211;-77
2022/07/14 02:07:38;;;;;;;2.90;1.67;;;19.00;99.90;;;;;;5065906;28;20234;-77
2022/07/14 02:12:58;;;;;;;2.33;1.33;;;19.10;99.90;;;;;;5051310;28;20283;-77
2022/07/14 02:15:28;;;;;;;1.33;1.23;;;19.10;99.90;;;;;;5051448;28;20224;-76
2022/07/14 02:17:56;;;;;;;1.40;1.30;;;19.10;99.90;;;;;;5051571;28;20781;-77
2022/07/14 02:20:25;;;;;;;2.90;1.40;;;19.00;99.90;;;;;;5052306;28;20235;-77
2022/07/14 02:22:53;;;;;;;1.97;1.50;;;19.00;99.90;;;;;;5051955;28;20248;-77
2022/07/14 02:25:21;;;;;;;1.90;1.40;;;18.90;99.90;;;;;;5053282;28;20286;-79
2022/07/14 02:27:49;;;;;;;3.00;1.57;;;18.80;99.90;;;;;;5056238;28;20311;-78
2022/07/14 02:30:18;;;;;;;1.93;1.50;;;18.80;99.90;;;;;;5072891;28;20299;-79
2022/07/14 02:32:47;;;;;;;2.80;1.40;;;18.70;99.90;;;;;;5072665;28;20203;-78
2022/07/14 02:35:15;;;;;;;2.03;1.40;;;18.70;99.90;;;;;;5067465;28;20311;-78
2022/07/14 02:37:43;;;;;;;1.57;1.47;;;18.60;99.90;;;;;;5052940;28;20358;-79
2022/07/14 02:40:13;;;;;;;2.00;1.40;;;18.60;99.90;;;;;;5052673;28;20297;-77
2022/07/14 02:42:41;;;;;;;3.37;1.40;;;18.60;99.90;;;;;;5052633;28;20275;-77
2022/07/14 02:45:10;;;;;;;2.47;1.57;;;18.60;99.90;;;;;;5053443;28;20192;-78
2022/07/14 02:47:40;;;;;;;1.53;1.37;;;18.50;99.90;;;;;;5052989;28;20299;-79
2022/07/14 02:50:09;;;;;;;4.00;1.70;;;18.50;99.90;;;;;;5052252;28;20251;-75
2022/07/14 02:52:39;;;;;;;1.40;1.30;;;18.40;99.90;;;;;;5052344;28;20236;-77
2022/07/14 02:55:07;;;;;;;1.70;1.40;;;18.40;99.90;;;;;;5052914;28;20236;-76
2022/07/14 02:57:36;;;;;;;3.27;1.50;;;18.30;99.90;;;;;;5052658;28;20204;-79
2022/07/14 03:00:05;;;;;;;4.20;1.53;;;18.20;99.90;;;;;;5057583;28;20627;-78
2022/07/14 03:02:34;;;;;;;1.63;1.50;;;18.20;99.90;;;;;;5071945;28;20656;-79
2022/07/14 03:05:04;;;;;;;3.93;1.67;;;18.10;99.90;;;;;;5072638;28;20237;-79
2022/07/14 03:07:32;;;;;;;1.53;1.40;;;18.10;99.90;;;;;;5072129;28;20211;-78
2022/07/14 03:10:00;;;;;;;3.80;1.43;;;18.10;99.90;;;;;;5071907;28;20207;-77
2022/07/14 03:12:28;;;;;;;1.60;1.50;;;18.10;99.90;;;;;;5072217;28;20830;-78
2022/07/14 03:14:56;;;;;;;2.63;1.70;;;18.00;99.90;;;;;;5070667;28;20238;-76
2022/07/14 03:17:25;;;;;;;2.33;1.60;;;18.00;99.90;;;;;;5060677;28;20216;-77
2022/07/14 03:19:53;;;;;;;1.40;1.30;;;18.00;99.90;;;;;;5056260;28;20212;-77
2022/07/14 03:22:23;;;;;;;5.37;1.30;;;17.90;99.90;;;;;;5052103;28;20730;-74
2022/07/14 03:24:51;;;;;;;2.17;1.60;;;17.90;99.90;;;;;;5052066;28;20265;-76
2022/07/14 03:27:19;;;;;;;2.70;1.80;;;17.90;99.90;;;;;;5062689;28;20310;-76
2022/07/14 03:29:48;;;;;;;5.43;1.40;;;17.80;99.90;;;;;;5071232;28;20669;-77
2022/07/14 03:32:16;;;;;;;4.77;1.73;;;17.80;99.90;;;;;;5071994;28;20207;-78
2022/07/14 03:34:45;;;;;;;2.07;1.70;;;17.70;99.90;;;;;;5071884;28;20337;-77
2022/07/14 03:37:13;;;;;;;3.00;1.40;;;17.70;99.90;;;;;;5070851;28;20245;-78
2022/07/14 03:39:42;;;;;;;1.40;1.30;;;17.70;99.90;;;;;;5071216;28;20767;-77
2022/07/14 03:42:11;;;;;;;1.80;1.50;;;17.70;99.90;;;;;;5071496;28;20296;-78
2022/07/14 03:44:39;;;;;;;1.93;1.50;;;17.70;99.90;;;;;;5071032;28;20763;-77
2022/07/14 03:47:07;;;;;;;1.70;1.60;;;17.70;99.90;;;;;;5066702;28;20199;-79
2022/07/14 03:49:35;;;;;;;3.57;1.70;;;17.70;99.90;;;;;;5071470;28;20211;-77
2022/07/14 03:52:04;;;;;;;2.33;1.60;;;17.70;99.90;;;;;;5070776;28;20233;-79
2022/07/14 03:54:32;;;;;;;3.50;1.77;;;17.70;99.90;;;;;;5071355;28;20300;-78
2022/07/14 03:57:01;;;;;;;3.93;1.70;;;17.70;99.90;;;;;;5053217;28;20251;-77
2022/07/14 03:59:30;;;;;;;5.23;1.83;;;17.70;99.90;;;;;;5051189;28;20216;-77
2022/07/14 04:01:58;;;;;;;6.07;1.63;;;17.70;99.90;;;;;;5051385;28;20643;-77
2022/07/14 04:04:26;;;;;;;3.87;1.60;;;17.70;99.90;;;;;;5059577;28;20265;-76
2022/07/14 04:06:55;;;;;;;3.17;1.80;;;17.70;99.90;;;;;;5066017;28;20718;-78
2022/07/14 04:09:23;;;;;;;3.13;1.60;;;17.70;99.90;;;;;;5067844;28;20739;-77
2022/07/14 04:11:51;;;;;;;4.50;1.60;;;17.60;99.90;;;;;;5072298;28;20207;-76
2022/07/14 04:14:21;;;;;;;2.43;1.60;;;17.60;99.90;;;;;;5077343;28;20250;-76
2022/07/14 04:16:49;;;;;;;5.80;2.00;;;17.60;99.90;;;;;;5061499;28;20230;-78
2022/07/14 04:19:18;;;;;;;2.17;1.80;;;17.50;99.90;;;;;;5057721;28;20238;-77
2022/07/14 04:21:46;;;;;;;2.03;1.50;;;17.50;99.90;;;;;;5057643;28;20247;-78
2022/07/14 04:24:14;;;;;;;2.60;1.70;;;17.50;99.90;;;;;;5057861;28;20203;-77
2022/07/14 04:26:42;;;;;;;3.60;1.63;;;17.50;99.90;;;;;;5076229;28;20290;-77
2022/07/14 04:29:11;;;;;;;3.50;1.70;;;17.60;99.90;;;;;;5077266;28;20209;-77
2022/07/14 04:31:41;;;;;;;5.30;1.80;;;17.60;99.90;;;;;;5077762;28;20246;-78
2022/07/14 04:34:10;;;;;;;4.80;1.60;;;17.70;99.90;;;;;;5077562;28;20207;-76
2022/07/14 04:36:38;;;;;;;3.07;1.57;;;17.70;99.90;;;;;;5077243;28;20269;-76
2022/07/14 04:39:07;;;;;;;2.00;1.83;;;17.70;99.90;;;;;;5077038;28;20215;-77
2022/07/14 04:41:39;;;;;;;4.80;1.90;;;17.80;99.90;;;;;;5055059;28;20656;-77
2022/07/14 04:44:08;;;;;;;1.90;1.70;;;17.80;99.90;;;;;;5071274;28;20205;-77
2022/07/14 04:46:36;;;;;;;3.33;1.53;;;17.70;99.90;;;;;;5072957;28;20207;-78
2022/07/14 04:52:03;;;;;;;3.53;1.70;;;17.70;99.90;;;;;;5062167;28;20283;-77
2022/07/14 04:54:33;;;;;;;8.23;2.30;;;17.70;99.90;;;;;;5060916;28;20199;-78
2022/07/14 04:57:03;;;;;;;3.03;2.10;;;17.80;99.90;;;;;;5069097;28;20229;-77
2022/07/14 04:59:32;;;;;;;3.50;2.00;;;17.80;99.90;;;;;;5076748;28;20285;-77
2022/07/14 05:02:01;;;;;;;1.73;1.60;;;17.90;99.90;;;;;;5084026;28;20636;-77
2022/07/14 05:04:31;;;;;;;2.47;1.60;;;18.00;99.90;;;;;;5097651;28;20202;-78
2022/07/14 05:06:59;;;;;;;2.10;1.50;;;18.30;99.90;;;;;;5072780;28;20330;-77
2022/07/14 05:09:32;;;;;;;1.60;1.50;;;18.50;99.90;;;;;;5096927;28;20226;-74
2022/07/14 05:12:01;;;;;;;2.40;1.60;;;18.70;99.90;;;;;;5099595;28;20224;-76
2022/07/14 05:14:30;;;;;;;3.03;1.60;;;19.00;99.90;;;;;;5066669;28;20713;-80
2022/07/14 05:16:58;;;;;;;3.73;1.70;;;19.30;99.90;;;;;;5089978;28;20719;-76
2022/07/14 05:19:46;;;;;;;1.77;1.43;;;19.60;99.90;;;;;;5097773;28;20194;-75
2022/07/14 05:22:15;;;;;;;3.77;1.60;;;19.80;99.90;;;;;;5097977;28;20191;-77
2022/07/14 05:24:43;;;;;;;1.60;1.50;;;20.00;99.90;;;;;;5081755;28;20208;-76
2022/07/14 05:27:11;;;;;;;2.53;1.40;;;20.20;99.90;;;;;;5074033;28;20219;-77
2022/07/14 05:29:39;;;;;;;4.10;1.50;;;20.50;99.90;;;;;;5073275;28;20231;-77
2022/07/14 05:32:07;;;;;;;3.43;1.47;;;20.70;99.90;;;;;;5074800;28;20265;-77
2022/07/14 05:34:42;;;;;;;2.33;1.50;;;21.00;99.90;;;;;;5076747;28;20242;-76
2022/07/14 05:37:12;;;;;;;1.90;1.30;;;21.20;99.90;;;;;;5056335;28;20243;-74
2022/07/14 05:39:40;;;;;;;2.47;1.27;;;21.50;99.90;;;;;;5072959;28;20646;-77
2022/07/14 05:42:09;;;;;;;5.23;1.60;;;21.60;99.90;;;;;;5055732;28;20621;-78
2022/07/14 05:44:37;;;;;;;5.77;1.60;;;21.80;99.90;;;;;;5054609;28;20768;-77
2022/07/14 05:47:05;;;;;;;2.20;1.43;;;22.00;99.90;;;;;;5058926;28;20334;-78
2022/07/14 05:49:34;;;;;;;3.53;1.50;;;22.00;99.90;;;;;;5073791;28;20207;-76
2022/07/14 05:52:05;;;;;;;4.37;1.67;;;22.00;99.90;;;;;;5066306;28;20242;-78
2022/07/14 05:54:34;;;;;;;4.90;1.47;;;22.00;99.90;;;;;;5074362;28;20291;-78
2022/07/14 05:57:03;;;;;;;3.77;1.37;;;22.30;99.90;;;;;;5056303;28;20251;-78
2022/07/14 05:59:31;;;;;;;2.17;1.40;;;22.70;99.90;;;;;;5056406;28;20204;-77
2022/07/14 06:02:13;;;;;;;1.37;1.20;;;23.20;99.90;;;;;;5072087;28;20573;-74
2022/07/14 06:04:53;;;;;;;2.00;1.60;;;23.40;99.90;;;;;;5075229;28;20211;-77
2022/07/14 06:07:36;;;;;;;3.47;1.40;;;23.40;99.90;;;;;;5076125;28;20274;-75
2022/07/14 06:10:37;;;;;;;2.80;1.50;;;23.80;99.90;;;;;;5075420;28;20297;-76
2022/07/14 06:13:21;;;;;;;3.57;1.50;;;24.50;99.90;;;;;;5070597;28;20188;-78
2022/07/14 06:15:53;;;;;;;5.50;1.50;;;25.60;99.10;;;;;;5077255;28;20217;-77
2022/07/14 06:18:22;;;;;;;4.07;1.80;;;26.00;96.70;;;;;;5080271;28;20627;-75
2022/07/14 06:20:50;;;;;;;3.03;1.40;;;26.40;96.10;;;;;;5084596;28;20203;-77
2022/07/14 06:23:19;;;;;;;6.10;1.37;;;27.00;95.30;;;;;;5079773;28;20253;-77
2022/07/14 06:25:49;;;;;;;3.23;1.23;;;27.80;93.40;;;;;;5080185;28;20258;-74
2022/07/14 06:28:18;;;;;;;1.40;1.30;;;28.50;91.80;;;;;;5072208;28;20246;-75
2022/07/14 06:30:46;;;;;;;3.47;1.35;;;29.50;90.70;;;;;;5083617;28;20263;-80
2022/07/14 06:33:14;;;;;;;3.95;1.40;;;30.10;86.70;;;;;;5082059;28;20293;-76
2022/07/14 06:35:43;;;;;;;5.57;1.55;;;30.40;85.10;;;;;;5079075;28;20209;-79
2022/07/14 06:38:35;;;;;;;3.80;1.13;;;30.90;84.50;;;;;;5056248;28;20299;-75
2022/07/14 06:41:07;;;;;;;2.80;1.30;;;30.80;82.10;;;;;;5065501;28;20281;-76
2022/07/14 06:43:36;;;;;;;3.28;1.38;;;31.60;80.20;;;;;;5074240;28;20255;-77
2022/07/14 06:46:07;;;;;;;3.83;1.30;;;32.60;78.90;;;;;;5074061;28;20294;-77
2022/07/14 06:48:35;;;;;;;2.90;1.30;;;33.60;74.30;;;;;;5077487;28;20208;-77
2022/07/14 06:51:04;;;;;;;6.13;1.50;;;33.80;69.70;;;;;;5079024;28;20530;-77
2022/07/14 06:53:33;;;;;;;3.70;1.40;;;34.20;68.50;;;;;;5080942;28;20243;-78
2022/07/14 06:56:01;;;;;;;6.18;1.60;;;35.10;65.50;;;;;;5069665;28;20640;-76
2022/07/14 06:58:32;;;;;;;6.80;1.50;;;35.60;63.80;;;;;;5080787;28;20685;-79
2022/07/14 07:01:01;;;;;;;4.63;1.40;;;36.50;63.80;;;;;;5080579;28;20226;-77
2022/07/14 07:03:29;;;;;;;2.53;1.30;;;37.20;59.20;;;;;;5066331;28;20551;-78
2022/07/14 07:08:45;;;;;;;6.88;1.50;;;37.80;55.20;;;;;;5077431;28;20196;-77
2022/07/14 07:11:13;;;;;;;3.28;1.33;;;38.00;53.70;;;;;;5078344;28;20215;-81
2022/07/14 07:13:43;;;;;;;5.85;1.60;;;37.90;53.60;;;;;;5086384;28;20211;-78
2022/07/14 07:16:11;;;;;;;2.92;1.30;;;37.80;54.40;;;;;;5085427;28;20251;-79
2022/07/14 07:18:40;;;;;;;7.03;1.40;;;38.10;56.10;;;;;;5075596;28;20240;-80
2022/07/14 07:21:12;;;;;;;3.08;1.30;;;37.30;55.00;;;;;;5061223;28;20619;-78
2022/07/14 07:23:44;;;;;;;1.90;1.35;;;36.30;54.40;;;;;;5078083;28;20241;-80
2022/07/14 07:26:12;;;;;;;2.70;1.40;;;35.80;54.90;;;;;;5108327;28;20976;-76
2022/07/14 07:28:42;;;;;;;3.50;1.20;;;35.50;56.50;;;;;;5092050;28;20909;-77
2022/07/14 07:31:10;;;;;;;4.50;1.17;;;35.90;58.10;;;;;;5077178;28;20208;-77
2022/07/14 07:33:39;;;;;;;2.10;1.23;;;35.60;56.70;;;;;;5059675;28;20215;-77
2022/07/14 07:36:08;;;;;;;5.05;1.40;;;35.60;57.00;;;;;;5059447;28;20295;-78
2022/07/14 07:38:36;;;;;;;3.78;1.30;;;35.20;55.80;;;;;;5059667;28;20224;-78
2022/07/14 07:41:05;;;;;;;3.67;1.30;;;34.40;56.30;;;;;;5061679;28;20235;-76
2022/07/14 07:43:34;;;;;;;5.07;1.50;;;34.40;56.50;;;;;;5054183;28;20271;-78
2022/07/14 07:46:05;;;;;;;9.57;1.42;;;34.40;56.00;;;;;;5054056;28;20228;-78
2022/07/14 07:48:34;;;;;;;7.00;1.45;;;35.20;57.00;;;;;;5081993;28;20229;-77
2022/07/14 07:51:02;;;;;;;3.92;1.40;;;36.60;55.50;;;;;;5083529;28;20238;-78
2022/07/14 07:53:30;;;;;;;5.53;1.35;;;36.70;53.10;;;;;;5078440;28;20211;-79
2022/07/14 07:55:59;;;;;;;6.05;1.40;;;36.70;52.90;;;;;;5071710;28;20239;-81
2022/07/14 07:58:27;;;;;;;7.53;1.42;;;36.30;53.40;;;;;;5082335;28;20322;-77
2022/07/14 08:00:55;;;;;;;4.40;1.30;;;36.20;54.30;;;;;;5079326;28;20214;-78
2022/07/14 08:03:26;;;;;;;6.50;1.50;;;36.10;52.70;;;;;;5070221;28;20637;-79
2022/07/14 08:05:55;;;;;;;4.60;1.50;;;36.60;53.40;;;;;;5059842;28;20192;-79
2022/07/14 08:08:43;;;;;;;5.07;1.65;;;36.80;52.70;;;;;;5066716;28;20268;-78
2022/07/14 08:11:11;;;;;;;4.97;1.38;;;37.50;54.40;;;;;;5067422;28;20208;-78
2022/07/14 08:13:40;;;;;;;9.25;1.52;;;38.10;52.80;;;;;;5059066;28;20214;-81
2022/07/14 08:16:09;;;;;;;2.90;1.55;;;38.50;50.30;;;;;;5066284;28;20208;-80
2022/07/14 08:18:39;;;;;;;3.28;1.67;;;38.80;50.50;;;;;;5060342;28;20326;-80
2022/07/14 08:21:08;;;;;;;5.07;1.58;;;39.50;48.90;;;;;;5063728;28;20692;-80
2022/07/14 08:23:37;;;;;;;7.03;1.65;;;39.50;48.70;;;;;;5068341;28;20261;-78
2022/07/14 08:26:06;;;;;;;4.43;1.73;;;39.60;49.40;;;;;;5070400;28;20199;-80
2022/07/14 08:28:34;;;;;;;6.72;1.48;;;39.10;49.20;;;;;;5095982;28;20625;-82
2022/07/14 08:31:02;;;;;;;7.07;1.58;;;39.00;50.10;;;;;;5079044;28;20219;-78
2022/07/14 08:33:31;;;;;;;6.38;1.60;;;38.80;50.50;;;;;;5086086;28;20668;-79
2022/07/14 08:36:01;;;;;;;2.42;1.50;;;39.10;48.90;;;;;;5087718;28;20268;-79
2022/07/14 08:38:29;;;;;;;6.00;1.70;;;38.60;47.60;;;;;;5077521;28;20232;-82
2022/07/14 08:40:57;;;;;;;5.18;1.73;;;37.60;49.80;;;;;;5078156;28;20666;-79
2022/07/14 08:43:27;;;;;;;4.35;1.55;;;36.60;52.90;;;;;;5070573;28;20219;-78
2022/07/14 08:45:55;;;;;;;2.60;1.20;;;35.70;54.00;;;;;;5070816;28;20524;-77
2022/07/14 08:48:24;;;;;;;3.75;1.45;;;35.50;55.00;;;;;;5062188;28;20213;-81
2022/07/14 08:50:52;;;;;;;4.85;1.35;;;36.10;52.80;;;;;;5066172;28;20239;-78
2022/07/14 08:53:23;;;;;;;6.75;1.52;;;36.60;55.00;;;;;;5071657;28;20197;-78
2022/07/14 08:55:52;;;;;;;6.03;1.50;;;36.80;51.60;;;;;;5088980;28;20211;-78
2022/07/14 08:58:20;;;;;;;3.25;1.42;;;37.20;49.80;;;;;;5081102;28;20723;-78
2022/07/14 09:00:48;;;;;;;4.22;1.60;;;38.60;49.80;;;;;;5096658;28;20233;-78
2022/07/14 09:03:17;;;;;;;5.10;1.40;;;38.70;50.10;;;;;;5097778;28;20217;-82
2022/07/14 09:06:06;;;;;;;2.75;1.60;;;38.60;49.00;;;;;;5092695;28;20213;-80
2022/07/14 09:08:54;;;;;;;4.00;1.50;;;39.40;47.30;;;;;;5090690;28;20207;-79
2022/07/14 09:11:22;;;;;;;4.03;1.60;;;39.40;46.90;;;;;;5084994;28;20225;-82
2022/07/14 09:13:51;;;;;;;6.60;1.90;;;40.00;45.20;;;;;;5075543;28;20662;-83
2022/07/14 09:16:22;;;;;;;3.63;1.50;;;39.80;44.40;;;;;;5076716;28;20668;-83
2022/07/14 09:19:06;;;;;;;4.32;1.35;;;39.70;44.60;;;;;;5072845;28;20212;-81
2022/07/14 09:21:35;;;;;;;3.95;1.42;;;39.20;47.50;;;;;;5066112;28;20204;-77
2022/07/14 09:24:07;;;;;;;7.10;1.40;;;39.40;42.90;;;;;;5093349;28;20203;-79
2022/07/14 09:26:43;;;;;;;5.57;1.60;;;39.20;48.60;;;;;;5084197;28;20191;-77
2022/07/14 09:29:18;;;;;;;4.95;1.60;;;39.80;44.20;;;;;;5070898;28;20249;-81
2022/07/14 09:31:47;;;;;;;7.30;1.50;;;40.00;43.80;;;;;;5058871;28;20217;-82
2022/07/14 09:34:29;;;;;;;6.72;1.70;;;40.00;47.10;;;;;;5058230;28;20207;-83
2022/07/14 09:37:13;;;;;;;6.53;1.80;;;40.70;42.70;;;;;;5062822;28;20196;-81
2022/07/14 09:39:54;;;;;;;2.95;1.60;;;40.60;43.80;;;;;;5059123;28;20228;-82
2022/07/14 09:42:52;;;;;;;2.45;1.50;;;40.60;43.00;;;;;;5056689;28;20219;-82
2022/07/14 09:45:22;;;;;;;4.70;1.70;;;40.40;46.20;;;;;;5060928;28;20290;-81
2022/07/14 09:48:03;;;;;;;8.18;1.80;;;40.20;42.50;;;;;;5064267;28;20196;-81
2022/07/14 09:50:43;;;;;;;3.85;1.50;;;40.10;44.60;;;;;;5054975;28;20672;-80
2022/07/14 09:53:17;;;;;;;5.45;1.58;;;40.70;43.50;;;;;;5067381;28;20195;-81
2022/07/14 09:55:56;;;;;;;3.60;1.50;;;40.00;46.40;;;;;;5065705;28;20213;-80
2022/07/14 09:58:26;;;;;;;4.53;1.67;;;39.60;45.30;;;;;;5057999;28;20191;-78
2022/07/14 10:01:07;;;;;;;3.65;1.45;;;40.00;44.30;;;;;;5056812;28;20216;-80
2022/07/14 10:03:39;;;;;;;3.72;1.40;;;39.70;42.40;;;;;;5079280;28;20294;-79
2022/07/14 10:06:10;;;;;;;5.10;1.30;;;40.10;45.60;;;;;;5083209;28;20272;-81
2022/07/14 10:09:00;;;;;;;1.45;1.23;;;40.10;45.10;;;;;;5087297;28;20204;-79
2022/07/14 10:11:30;;;;;;;5.10;1.40;;;39.50;46.70;;;;;;5085019;28;20236;-79
2022/07/14 10:14:00;;;;;;;6.93;1.60;;;39.30;44.20;;;;;;5088323;28;20261;-80
2022/07/14 10:16:33;;;;;;;5.75;1.40;;;39.20;45.70;;;;;;5085997;28;20208;-82
2022/07/14 10:19:04;;;;;;;2.22;1.50;;;38.90;46.50;;;;;;5078243;28;20303;-83
2022/07/14 10:21:43;;;;;;;4.38;1.40;;;39.50;47.20;;;;;;5075244;28;20200;-80
2022/07/14 10:24:12;;;;;;;2.70;1.33;;;39.60;45.70;;;;;;5069701;28;20196;-78
2022/07/14 10:26:44;;;;;;;5.82;1.30;;;39.10;43.20;;;;;;5063184;28;20239;-77
2022/07/14 10:29:14;;;;;;;2.17;1.30;;;38.00;43.60;;;;;;5062483;28;20612;-78
2022/07/14 10:31:53;;;;;;;2.80;1.33;;;37.70;45.00;;;;;;5068664;28;20599;-78
2022/07/14 10:34:32;;;;;;;3.88;1.27;;;38.80;46.00;;;;;;5065943;28;20197;-78
2022/07/14 10:37:05;;;;;;;6.20;1.40;;;38.80;44.40;;;;;;5075368;28;20211;-82
2022/07/14 10:39:48;;;;;;;4.28;1.33;;;39.60;45.20;;;;;;5077564;28;20710;-78
2022/07/14 10:42:28;;;;;;;5.22;1.40;;;39.60;42.90;;;;;;5077444;28;20241;-80
2022/07/14 10:44:57;;;;;;;4.35;1.20;;;39.90;41.30;;;;;;5078975;28;20207;-80
2022/07/14 10:47:45;;;;;;;2.90;1.40;;;40.10;45.10;;;;;;5093374;28;20221;-81
2022/07/14 10:50:14;;;;;;;3.92;1.30;;;40.10;41.80;;;;;;5101648;28;20221;-80
2022/07/14 10:52:56;;;;;;;3.00;1.25;;;39.90;43.00;;;;;;5100317;28;20271;-80
2022/07/14 10:55:37;;;;;;;1.63;1.30;;;39.90;42.10;;;;;;5102153;28;20274;-80
2022/07/14 10:58:30;;;;;;;3.72;1.30;;;39.60;42.80;;;;;;5102594;28;20230;-81
2022/07/14 11:01:00;;;;;;;2.30;1.10;;;39.70;42.80;;;;;;5105581;28;20248;-79
2022/07/14 11:03:44;;;;;;;7.03;1.30;;;39.30;44.80;;;;;;5103446;28;20209;-82
2022/07/14 11:06:14;;;;;;;3.33;1.33;;;39.70;42.00;;;;;;5105029;28;20201;-80
2022/07/14 11:09:25;;;;;;;1.95;1.30;;;39.50;43.20;;;;;;5108833;28;20633;-82
2022/07/14 11:12:14;;;;;;;1.70;1.30;;;39.40;42.20;;;;;;5102201;28;20623;-80
2022/07/14 11:14:45;;;;;;;2.50;1.20;;;39.30;44.90;;;;;;5100546;28;20198;-82
2022/07/14 11:17:55;;;;;;;2.13;1.30;;;39.20;44.60;;;;;;5062278;28;20242;-80
2022/07/14 11:20:48;;;;;;;5.20;1.20;;;39.00;42.10;;;;;;4977390;28;20294;-80
2022/07/14 11:23:21;;;;;;;1.00;1.00;;;38.70;41.20;;;;;;5061492;28;20233;-80
2022/07/14 11:25:50;;;;;;;1.70;1.17;;;38.20;41.20;;;;;;5055227;28;20193;-82
2022/07/14 11:28:33;;;;;;;3.40;1.20;;;38.10;41.90;;;;;;5058917;28;20248;-78
2022/07/14 11:31:14;;;;;;;2.35;1.02;;;38.40;43.00;;;;;;5065231;28;20239;-78
2022/07/14 11:36:32;;;;;;;4.53;1.30;;;38.30;44.00;;;;;;5055228;28;20298;-82
2022/07/14 11:39:25;;;;;;;3.72;1.25;;;38.00;43.00;;;;;;5069901;28;20204;-80
2022/07/14 11:42:06;;;;;;;5.85;1.23;;;37.40;47.00;;;;;;5069565;28;20242;-80
2022/07/14 11:44:48;;;;;;;7.28;1.17;;;37.10;46.90;;;;;;5062627;28;20184;-83
2022/07/14 11:47:20;;;;;;;2.97;1.10;;;37.10;43.20;;;;;;5064703;28;20204;-79
2022/07/14 11:49:55;;;;;;;3.08;1.00;;;37.30;45.00;;;;;;5059220;28;20692;-80
2022/07/14 11:52:26;;;;;;;2.33;1.10;;;37.30;46.20;;;;;;5065901;28;20227;-79
2022/07/14 11:54:56;;;;;;;4.38;0.88;;;37.30;46.20;;;;;;5064563;28;20258;-80
2022/07/14 11:57:24;;;;;;;1.05;0.90;;;36.90;43.70;;;;;;5055974;28;20243;-82
2022/07/14 12:00:00;;;;;;;2.08;1.00;;;36.90;46.00;;;;;;5060771;28;20281;-78
2022/07/14 12:02:32;;;;;;;6.30;1.23;;;36.80;45.00;;;;;;5060418;28;20232;-78
2022/07/14 12:05:03;;;;;;;1.95;0.95;;;36.60;44.30;;;;;;5055911;28;20246;-80
2022/07/14 12:07:45;;;;;;;1.85;1.00;;;36.50;44.90;;;;;;5055606;28;20231;-76
2022/07/14 12:10:15;;;;;;;2.83;1.10;;;36.20;43.70;;;;;;5055011;28;20223;-80
2022/07/14 12:12:47;;;;;;;2.55;1.17;;;35.80;47.10;;;;;;5062590;28;20204;-80
2022/07/14 12:15:23;;;;;;;2.60;1.05;;;35.80;46.80;;;;;;5055714;28;20216;-80
2022/07/14 12:17:55;;;;;;;4.22;1.20;;;35.80;47.90;;;;;;5055922;28;20283;-78
2022/07/14 12:20:25;;;;;;;7.30;1.30;;;35.80;47.40;;;;;;5061001;28;20208;-79
2022/07/14 12:22:55;;;;;;;4.20;1.10;;;35.80;47.30;;;;;;5064061;28;20689;-79
2022/07/14 12:25:30;;;;;;;1.30;1.02;;;35.60;44.30;;;;;;5067294;28;20235;-78
2022/07/14 12:28:00;;;;;;;2.72;1.00;;;35.60;45.80;;;;;;5070700;28;20184;-78
2022/07/14 12:30:45;;;;;;;3.80;1.05;;;35.70;47.80;;;;;;5066201;28;20188;-78
2022/07/14 12:33:19;;;;;;;6.85;1.25;;;35.80;46.50;;;;;;5069295;28;20204;-79
2022/07/14 12:35:50;;;;;;;1.95;1.10;;;35.50;47.30;;;;;;5067129;28;20200;-77
2022/07/14 12:38:20;;;;;;;3.45;1.02;;;35.60;45.10;;;;;;5061582;28;20192;-79
2022/07/14 12:40:51;;;;;;;4.47;1.00;;;35.50;48.00;;;;;;5065005;28;20224;-80
2022/07/14 12:43:28;;;;;;;4.55;1.13;;;35.50;46.50;;;;;;5062377;28;20188;-76
2022/07/14 12:46:02;;;;;;;4.30;1.20;;;35.50;47.50;;;;;;5064229;28;20650;-76
2022/07/14 12:48:34;;;;;;;4.28;0.90;;;35.40;45.40;;;;;;5057986;28;20719;-80
2022/07/14 12:51:19;;;;;;;4.80;1.30;;;35.30;44.90;;;;;;5058120;28;20634;-79
2022/07/14 12:54:02;;;;;;;1.77;1.00;;;35.40;44.80;;;;;;5057970;28;20212;-77
2022/07/14 12:56:32;;;;;;;2.60;0.90;;;35.40;47.70;;;;;;5059295;28;20596;-79
2022/07/14 12:59:03;;;;;;;2.53;1.00;;;35.30;47.00;;;;;;5060725;28;20236;-81
2022/07/14 13:01:33;;;;;;;5.70;1.10;;;35.20;43.00;;;;;;5064766;28;20228;-76
2022/07/14 13:04:04;;;;;;;2.95;0.80;;;35.20;44.10;;;;;;5060003;28;20217;-78
2022/07/14 13:06:44;;;;;;;1.52;1.20;;;35.30;44.80;;;;;;5058080;28;20196;-79
2022/07/14 13:09:17;;;;;;;3.97;1.15;;;35.10;43.80;;;;;;5058552;28;20702;-79
2022/07/14 13:11:47;;;;;;;2.13;1.10;;;35.00;43.10;;;;;;5058715;28;20228;-77
2022/07/14 13:14:17;;;;;;;1.65;1.05;;;34.70;43.30;;;;;;5076868;28;20207;-77
2022/07/14 13:16:46;;;;;;;7.82;1.17;;;34.80;42.50;;;;;;5077692;28;20211;-78
2022/07/14 13:19:22;;;;;;;4.47;1.10;;;34.70;45.40;;;;;;5076312;28;20215;-79
2022/07/14 13:22:04;;;;;;;3.60;1.13;;;34.90;45.50;;;;;;5077467;28;20247;-78